• Join FlightAware (Why Join?)
  • Login
  • US Flag 
03:21PM EDT


 

Airport Tracker/Info


-or-


 

Live Flight TrackerFlight Track Log ✈ JZA8436 ✈ 23-May-2013 ✈ CYYC - CYQR

Flight Track Log - Related Links

Times and Time Zones

All times are in EDT time to prevent confusion due to time zone crossing. See the JZA8436 flight status page for this flight to view local times or setup timezone preferences in your user account.

Time Position Orientation Groundspeed Altitude Reporting Facility
EDT Latitude Longitude Course Direction KTS MPH feet Rate Location/Type
01:16PM 51.0667 -114.0333 94° East 150 173 4,600  Level Edmonton Center
01:17PM 51.0333 -114.0000 148° Southeast 140 161 7,400 2,520 Climbing Edmonton Center
01:18PM 51.0500 -113.9167 72° East 170 196 9,700 1,860 Climbing Edmonton Center
01:19PM 51.0500 -113.8333 90° East 210 242 11,200 1,620 Climbing Edmonton Center
01:20PM 51.0500 -113.7333 90° East 220 253 13,000 1,860 Climbing Edmonton Center
01:21PM 51.0833 -113.1076 90° East  Level FlightAware Approximate
01:21PM 51.0500 -113.6167 90° East 230 265 15,000  Level Edmonton Center
01:22PM 51.0787 -112.9562 94° East  Level FlightAware Approximate
01:22PM 51.0333 -113.5333 108° East 230 265 16,700  Level Edmonton Center
01:23PM 51.0500 -113.4333 75° East 230 265 18,200 1,260 Climbing Edmonton Center
01:24PM 51.0333 -113.3167 103° East 240 276 19,300 1,200 Climbing Edmonton Center
01:25PM 51.0333 -113.2167 90° East 250 288 20,600 1,200 Climbing Edmonton Center
01:26PM 51.0167 -113.1000 103° East 260 299 21,700 1,140 Climbing Edmonton Center
01:27PM 51.0333 -112.9667 79° East 250 288 22,900 600 Climbing Edmonton Center
01:28PM 51.0167 -112.8667 105° East 270 311 23,000  Climbing Edmonton Center
01:29PM 51.0167 -112.7333 90° East 290 334 23,000  Level Edmonton Center
01:30PM 51.0167 -112.5833 90° East 310 357 23,000  Level Edmonton Center
01:31PM 51.0167 -112.4500 90° East 310 357 23,000  Level Edmonton Center
01:32PM 51.0167 -112.3000 90° East 320 368 23,000  Level Edmonton Center
01:33PM 51.0000 -112.1500 100° East 320 368 23,000  Level Edmonton Center
01:34PM 51.0000 -112.0167 90° East 320 368 23,000  Level Edmonton Center
01:35PM 50.9833 -111.8833 101° East 320 368 23,000  Level Edmonton Center
01:36PM 50.9833 -111.7167 92° East 320 368 23,000  Level Edmonton Center
01:37PM 50.9756 -111.6087 92° East  Level FlightAware Approximate
01:37PM 50.9667 -111.5833 101° East 320 368 23,000  Level Edmonton Center
01:38PM 50.9833 -111.4500 79° East 320 368 23,000  Level Edmonton Center
01:39PM 50.9667 -111.3167 101° East 320 368 23,000  Level Edmonton Center
01:40PM 50.9667 -111.1833 90° East 320 368 23,000  Level Edmonton Center
01:41PM 50.9500 -111.0167 99° East 320 368 23,000  Level Edmonton Center
01:42PM 50.9500 -110.8833 90° East 320 368 23,000  Level Edmonton Center
01:43PM 50.9333 -110.7500 101° East 320 368 23,000  Level Edmonton Center
01:44PM 50.9333 -110.5833 90° East 330 380 23,000  Level Edmonton Center
01:45PM 50.9167 -110.4500 101° East 320 368 23,000  Level Edmonton Center
01:46PM 50.9000 -110.3167 101° East 320 368 23,000  Level Edmonton Center
01:47PM 50.9167 -110.1500 81° East 320 368 23,000  Level Edmonton Center
01:48PM 50.9000 -110.0167 101° East 320 368 23,000  Level Edmonton Center
01:49PM 50.9000 -109.8833 90° East 320 368 23,000  Level Edmonton Center
01:50PM 50.8833 -109.7500 101° East 320 368 23,000  Level Edmonton Center
01:51PM 50.8667 -109.5833 99° East 330 380 23,000  Level Edmonton Center
01:52PM 50.8667 -109.4500 90° East 330 380 23,000  Level Edmonton Center
01:53PM 50.8667 -109.3000 90° East 330 380 23,000  Level Edmonton Center
01:54PM 50.8500 -109.1667 101° East 330 380 23,000  Level Edmonton Center
01:55PM 50.8500 -109.0000 90° East 330 380 23,000  Level Edmonton Center
01:56PM 50.8333 -108.8667 101° East 330 380 23,000  Level Edmonton Center
01:57PM 50.8167 -108.7000 99° East 330 380 23,000  Level Edmonton Center
01:58PM 50.8000 -108.5667 101° East 330 380 23,000  Level Edmonton Center
01:59PM 50.8167 -108.4333 79° East 330 380 23,000  Level Edmonton Center
02:00PM 50.8000 -108.2667 99° East 330 380 23,000  Level Edmonton Center
02:01PM 50.7833 -108.1167 100° East 330 380 23,000  Level Edmonton Center
02:02PM 50.7833 -108.0333 90° East 340 391 23,000  Level Winnipeg Center
02:03PM 50.7667 -107.8167 97° East 340 391 23,000  Level Edmonton Center
02:04PM 50.7500 -107.6833 101° East 330 380 23,000  Level Edmonton Center
02:05PM 50.7333 -107.5167 99° East 340 391 23,000  Level Edmonton Center
02:06PM 50.7333 -107.3833 90° East 340 391 23,000  Level Edmonton Center
02:07PM 50.7333 -107.2333 90° East 340 391 23,000  Level Edmonton Center
02:08PM 50.7167 -107.1000 101° East 340 391 23,000  Level Edmonton Center
02:10PM 50.6833 -106.7667 99° East 340 391 23,000  Level Edmonton Center
02:11PM 50.6667 -106.6167 100° East 340 391 23,000 -240 Level Edmonton Center
02:12PM 50.6500 -106.4833 101° East 350 403 22,600 -960 Descending Edmonton Center
02:13PM 50.6500 -106.3167 90° East 350 403 21,100 -1,620 Descending Edmonton Center
02:14PM 50.6333 -106.1667 100° East 360 414 19,400 -1,560 Descending Edmonton Center
02:15PM 50.6333 -106.0333 90° East 350 403 18,000 -1,680 Descending Edmonton Center
02:16PM 50.6167 -105.8667 99° East 350 403 16,100 -1,740 Descending Edmonton Center
02:17PM 50.6000 -105.7167 100° East 340 391 14,600 -1,560 Descending Edmonton Center
02:18PM 50.6000 -105.5833 90° East 320 368 13,000 -1,200 Descending Edmonton Center
02:19PM 50.5833 -105.4500 101° East 310 357 12,200 -1,380 Descending Edmonton Center
02:20PM 50.5833 -105.3500 90° East 290 334 10,500 -1,620 Descending Winnipeg Center
02:21PM 50.5667 -105.2500 105° East 260 299 9,300 -1,200 Descending Winnipeg Center
02:22PM 50.5833 -105.1500 75° East 250 288 8,200 -1,200 Descending Winnipeg Center
02:23PM 50.5667 -105.0333 103° East 240 276 7,000 -1,080 Descending Winnipeg Center
02:24PM 50.5500 -104.9500 107° East 220 253 6,100 -960 Descending Winnipeg Center
02:25PM 50.5500 -104.8833 90° East 200 230 5,100 -960 Descending Winnipeg Center
02:26PM 50.5167 -104.8167 128° Southeast 170 196 4,200 -780 Descending Winnipeg Center
02:27PM 50.4833 -104.7833 148° Southeast 150 173 3,600 -660 Descending Winnipeg Center
02:28PM 50.4500 -104.7333 136° Southeast 130 150 2,900 -720 Descending Winnipeg Center
02:29PM 50.4333 -104.7000 128° Southeast 110 127 2,200 -720 Descending Winnipeg Center